sensor_id;sensor_type;location;lat;lon;timestamp;temperature;humidity
1958;DHT22;979;51.076;13.748;2022-08-19T00:01:55;24.30;79.90
1958;DHT22;979;51.076;13.748;2022-08-19T00:04:27;24.30;80.00
1958;DHT22;979;51.076;13.748;2022-08-19T00:06:57;24.30;80.40
1958;DHT22;979;51.076;13.748;2022-08-19T00:09:27;24.20;80.20
1958;DHT22;979;51.076;13.748;2022-08-19T00:11:59;24.10;80.30
1958;DHT22;979;51.076;13.748;2022-08-19T00:14:28;24.10;80.40
1958;DHT22;979;51.076;13.748;2022-08-19T00:16:59;24.10;80.50
1958;DHT22;979;51.076;13.748;2022-08-19T00:19:27;24.10;80.50
1958;DHT22;979;51.076;13.748;2022-08-19T00:21:56;24.10;80.70
1958;DHT22;979;51.076;13.748;2022-08-19T00:24:24;24.10;80.80
1958;DHT22;979;51.076;13.748;2022-08-19T00:26:54;24.10;80.90
1958;DHT22;979;51.076;13.748;2022-08-19T00:29:43;24.10;81.10
1958;DHT22;979;51.076;13.748;2022-08-19T00:32:11;24.10;81.10
1958;DHT22;979;51.076;13.748;2022-08-19T00:34:43;24.00;82.00
1958;DHT22;979;51.076;13.748;2022-08-19T00:37:11;24.00;81.30
1958;DHT22;979;51.076;13.748;2022-08-19T00:39:40;24.00;81.30
1958;DHT22;979;51.076;13.748;2022-08-19T00:42:12;24.10;81.60
1958;DHT22;979;51.076;13.748;2022-08-19T00:44:42;24.00;81.60
1958;DHT22;979;51.076;13.748;2022-08-19T00:47:13;24.10;81.70
1958;DHT22;979;51.076;13.748;2022-08-19T00:49:44;24.00;81.70
1958;DHT22;979;51.076;13.748;2022-08-19T00:52:23;24.00;81.90
1958;DHT22;979;51.076;13.748;2022-08-19T00:54:56;23.90;82.00
1958;DHT22;979;51.076;13.748;2022-08-19T00:57:28;23.90;82.10
1958;DHT22;979;51.076;13.748;2022-08-19T00:59:58;23.90;82.50
1958;DHT22;979;51.076;13.748;2022-08-19T01:02:32;23.80;82.50
1958;DHT22;979;51.076;13.748;2022-08-19T01:05:03;23.80;82.70
1958;DHT22;979;51.076;13.748;2022-08-19T01:07:33;23.80;82.90
1958;DHT22;979;51.076;13.748;2022-08-19T01:10:07;23.80;83.00
1958;DHT22;979;51.076;13.748;2022-08-19T01:12:39;23.70;83.10
1958;DHT22;979;51.076;13.748;2022-08-19T01:15:10;23.70;83.30
1958;DHT22;979;51.076;13.748;2022-08-19T01:17:43;23.70;83.40
1958;DHT22;979;51.076;13.748;2022-08-19T01:20:18;23.70;83.70
1958;DHT22;979;51.076;13.748;2022-08-19T01:22:53;23.70;83.80
1958;DHT22;979;51.076;13.748;2022-08-19T01:25:24;23.70;83.90
1958;DHT22;979;51.076;13.748;2022-08-19T01:27:55;23.70;83.80
1958;DHT22;979;51.076;13.748;2022-08-19T01:30:35;23.70;84.00
1958;DHT22;979;51.076;13.748;2022-08-19T01:33:04;23.70;83.90
1958;DHT22;979;51.076;13.748;2022-08-19T01:35:32;23.70;84.00
1958;DHT22;979;51.076;13.748;2022-08-19T01:38:08;23.70;84.00
1958;DHT22;979;51.076;13.748;2022-08-19T01:40:39;23.70;84.20
1958;DHT22;979;51.076;13.748;2022-08-19T01:43:11;23.60;84.30
1958;DHT22;979;51.076;13.748;2022-08-19T01:45:39;23.70;84.40
1958;DHT22;979;51.076;13.748;2022-08-19T01:48:08;23.70;84.50
1958;DHT22;979;51.076;13.748;2022-08-19T01:50:36;23.70;84.50
1958;DHT22;979;51.076;13.748;2022-08-19T01:53:09;23.70;84.60
1958;DHT22;979;51.076;13.748;2022-08-19T01:55:39;23.60;84.60
1958;DHT22;979;51.076;13.748;2022-08-19T01:58:12;23.70;84.70
1958;DHT22;979;51.076;13.748;2022-08-19T02:00:44;23.70;84.80
1958;DHT22;979;51.076;13.748;2022-08-19T02:03:13;23.70;84.80
1958;DHT22;979;51.076;13.748;2022-08-19T02:05:42;23.70;84.80
1958;DHT22;979;51.076;13.748;2022-08-19T02:08:12;23.80;85.00
1958;DHT22;979;51.076;13.748;2022-08-19T02:10:41;23.80;85.00
1958;DHT22;979;51.076;13.748;2022-08-19T02:13:10;23.80;85.70
1958;DHT22;979;51.076;13.748;2022-08-19T02:15:40;23.80;85.10
1958;DHT22;979;51.076;13.748;2022-08-19T02:18:08;23.90;85.20
1958;DHT22;979;51.076;13.748;2022-08-19T02:20:38;23.80;85.10
1958;DHT22;979;51.076;13.748;2022-08-19T02:23:11;23.80;85.20
1958;DHT22;979;51.076;13.748;2022-08-19T02:25:46;23.80;85.30
1958;DHT22;979;51.076;13.748;2022-08-19T02:28:15;23.70;86.00
1958;DHT22;979;51.076;13.748;2022-08-19T02:30:45;23.80;85.50
1958;DHT22;979;51.076;13.748;2022-08-19T02:33:15;23.70;85.40
1958;DHT22;979;51.076;13.748;2022-08-19T02:35:43;23.80;85.60
1958;DHT22;979;51.076;13.748;2022-08-19T02:38:13;23.80;85.60
1958;DHT22;979;51.076;13.748;2022-08-19T02:40:55;23.90;85.60
1958;DHT22;979;51.076;13.748;2022-08-19T02:43:24;23.90;85.40
1958;DHT22;979;51.076;13.748;2022-08-19T02:45:53;23.90;85.40
1958;DHT22;979;51.076;13.748;2022-08-19T02:48:23;24.00;85.60
1958;DHT22;979;51.076;13.748;2022-08-19T02:50:53;24.00;85.50
1958;DHT22;979;51.076;13.748;2022-08-19T02:53:26;24.00;85.50
1958;DHT22;979;51.076;13.748;2022-08-19T02:55:58;24.00;85.50
1958;DHT22;979;51.076;13.748;2022-08-19T02:58:26;23.90;85.50
1958;DHT22;979;51.076;13.748;2022-08-19T03:00:55;23.90;85.50
1958;DHT22;979;51.076;13.748;2022-08-19T03:03:25;23.90;85.60
1958;DHT22;979;51.076;13.748;2022-08-19T03:06:06;23.90;85.70
1958;DHT22;979;51.076;13.748;2022-08-19T03:08:39;23.90;85.70
1958;DHT22;979;51.076;13.748;2022-08-19T03:11:14;24.00;85.80
1958;DHT22;979;51.076;13.748;2022-08-19T03:13:43;23.90;85.80
1958;DHT22;979;51.076;13.748;2022-08-19T03:16:12;23.90;85.90
1958;DHT22;979;51.076;13.748;2022-08-19T03:18:48;23.90;86.10
1958;DHT22;979;51.076;13.748;2022-08-19T03:21:17;23.90;86.20
1958;DHT22;979;51.076;13.748;2022-08-19T03:23:46;23.90;85.90
1958;DHT22;979;51.076;13.748;2022-08-19T03:26:15;23.90;86.00
1958;DHT22;979;51.076;13.748;2022-08-19T03:28:46;23.90;86.00
1958;DHT22;979;51.076;13.748;2022-08-19T03:31:26;23.90;86.00
1958;DHT22;979;51.076;13.748;2022-08-19T03:34:12;23.90;86.10
1958;DHT22;979;51.076;13.748;2022-08-19T03:36:41;23.80;86.10
1958;DHT22;979;51.076;13.748;2022-08-19T03:39:10;23.80;86.20
1958;DHT22;979;51.076;13.748;2022-08-19T03:41:40;23.80;86.20
1958;DHT22;979;51.076;13.748;2022-08-19T03:44:12;23.80;87.00
1958;DHT22;979;51.076;13.748;2022-08-19T03:46:48;23.80;86.30
1958;DHT22;979;51.076;13.748;2022-08-19T03:49:18;23.90;86.30
1958;DHT22;979;51.076;13.748;2022-08-19T03:51:48;23.90;86.20
1958;DHT22;979;51.076;13.748;2022-08-19T03:54:21;23.90;86.10
1958;DHT22;979;51.076;13.748;2022-08-19T03:56:52;23.90;86.10
1958;DHT22;979;51.076;13.748;2022-08-19T03:59:25;24.00;86.20
1958;DHT22;979;51.076;13.748;2022-08-19T04:01:54;24.00;86.10
1958;DHT22;979;51.076;13.748;2022-08-19T04:04:22;24.00;86.00
1958;DHT22;979;51.076;13.748;2022-08-19T04:06:55;24.00;86.00
1958;DHT22;979;51.076;13.748;2022-08-19T04:09:25;24.00;86.00
1958;DHT22;979;51.076;13.748;2022-08-19T04:11:55;24.30;86.30
1958;DHT22;979;51.076;13.748;2022-08-19T04:14:28;24.00;85.90
1958;DHT22;979;51.076;13.748;2022-08-19T04:16:57;24.00;86.00
1958;DHT22;979;51.076;13.748;2022-08-19T04:19:29;23.90;85.90
1958;DHT22;979;51.076;13.748;2022-08-19T04:21:58;23.90;85.90
1958;DHT22;979;51.076;13.748;2022-08-19T04:24:28;23.90;86.00
1958;DHT22;979;51.076;13.748;2022-08-19T04:26:59;23.80;86.10
1958;DHT22;979;51.076;13.748;2022-08-19T04:29:27;23.80;86.20
1958;DHT22;979;51.076;13.748;2022-08-19T04:31:57;23.80;86.40
1958;DHT22;979;51.076;13.748;2022-08-19T04:34:37;23.80;86.40
1958;DHT22;979;51.076;13.748;2022-08-19T04:37:26;23.80;86.60
1958;DHT22;979;51.076;13.748;2022-08-19T04:40:05;23.80;86.50
1958;DHT22;979;51.076;13.748;2022-08-19T04:42:51;23.80;86.70
1958;DHT22;979;51.076;13.748;2022-08-19T04:45:20;23.80;86.60
1958;DHT22;979;51.076;13.748;2022-08-19T04:47:54;23.80;86.50
1958;DHT22;979;51.076;13.748;2022-08-19T04:50:45;23.90;86.60
1958;DHT22;979;51.076;13.748;2022-08-19T04:53:13;23.90;86.50
1958;DHT22;979;51.076;13.748;2022-08-19T04:55:43;23.90;86.50
1958;DHT22;979;51.076;13.748;2022-08-19T04:58:11;23.90;86.40
1958;DHT22;979;51.076;13.748;2022-08-19T05:00:40;23.90;86.40
1958;DHT22;979;51.076;13.748;2022-08-19T05:03:08;23.90;86.50
1958;DHT22;979;51.076;13.748;2022-08-19T05:05:39;23.90;86.60
1958;DHT22;979;51.076;13.748;2022-08-19T05:08:12;23.90;86.50
1958;DHT22;979;51.076;13.748;2022-08-19T05:10:42;23.90;86.60
1958;DHT22;979;51.076;13.748;2022-08-19T05:13:11;23.90;86.50
1958;DHT22;979;51.076;13.748;2022-08-19T05:15:39;23.90;86.70
1958;DHT22;979;51.076;13.748;2022-08-19T05:18:09;23.90;86.50
1958;DHT22;979;51.076;13.748;2022-08-19T05:20:55;23.90;86.70
1958;DHT22;979;51.076;13.748;2022-08-19T05:23:43;23.90;86.50
1958;DHT22;979;51.076;13.748;2022-08-19T05:26:13;23.80;86.50
1958;DHT22;979;51.076;13.748;2022-08-19T05:28:43;23.80;86.80
1958;DHT22;979;51.076;13.748;2022-08-19T05:31:11;23.70;86.70
1958;DHT22;979;51.076;13.748;2022-08-19T05:33:40;23.80;86.90
1958;DHT22;979;51.076;13.748;2022-08-19T05:36:08;23.70;86.80
1958;DHT22;979;51.076;13.748;2022-08-19T05:38:39;23.70;86.80
1958;DHT22;979;51.076;13.748;2022-08-19T05:41:08;23.90;87.10
1958;DHT22;979;51.076;13.748;2022-08-19T05:43:38;23.70;86.90
1958;DHT22;979;51.076;13.748;2022-08-19T05:46:07;23.70;86.90
1958;DHT22;979;51.076;13.748;2022-08-19T05:48:35;23.70;86.90
1958;DHT22;979;51.076;13.748;2022-08-19T05:51:06;23.70;86.90
1958;DHT22;979;51.076;13.748;2022-08-19T05:53:38;23.70;86.80
1958;DHT22;979;51.076;13.748;2022-08-19T05:56:07;23.60;86.90
1958;DHT22;979;51.076;13.748;2022-08-19T05:58:37;23.60;87.00
1958;DHT22;979;51.076;13.748;2022-08-19T06:01:11;23.70;87.10
1958;DHT22;979;51.076;13.748;2022-08-19T06:03:40;23.70;87.10
1958;DHT22;979;51.076;13.748;2022-08-19T06:06:10;23.70;87.00
1958;DHT22;979;51.076;13.748;2022-08-19T06:08:42;23.70;86.90
1958;DHT22;979;51.076;13.748;2022-08-19T06:11:18;23.60;87.00
1958;DHT22;979;51.076;13.748;2022-08-19T06:13:50;23.60;87.10
1958;DHT22;979;51.076;13.748;2022-08-19T06:16:26;23.60;87.20
1958;DHT22;979;51.076;13.748;2022-08-19T06:18:56;23.60;87.10
1958;DHT22;979;51.076;13.748;2022-08-19T06:21:27;23.70;87.20
1958;DHT22;979;51.076;13.748;2022-08-19T06:23:56;23.60;87.20
1958;DHT22;979;51.076;13.748;2022-08-19T06:26:25;23.60;87.20
1958;DHT22;979;51.076;13.748;2022-08-19T06:28:55;23.60;87.20
1958;DHT22;979;51.076;13.748;2022-08-19T06:31:25;23.60;87.20
1958;DHT22;979;51.076;13.748;2022-08-19T06:33:54;23.60;87.10
1958;DHT22;979;51.076;13.748;2022-08-19T06:36:25;23.60;87.10
1958;DHT22;979;51.076;13.748;2022-08-19T06:39:07;23.60;87.30
1958;DHT22;979;51.076;13.748;2022-08-19T06:41:38;23.70;87.10
1958;DHT22;979;51.076;13.748;2022-08-19T06:44:19;23.70;87.40
1958;DHT22;979;51.076;13.748;2022-08-19T06:46:50;23.70;86.90
1958;DHT22;979;51.076;13.748;2022-08-19T06:49:23;23.70;87.00
1958;DHT22;979;51.076;13.748;2022-08-19T06:51:59;23.70;87.10
1958;DHT22;979;51.076;13.748;2022-08-19T06:54:28;23.70;87.80
1958;DHT22;979;51.076;13.748;2022-08-19T06:57:21;23.90;87.50
1958;DHT22;979;51.076;13.748;2022-08-19T06:59:50;23.70;87.30
1958;DHT22;979;51.076;13.748;2022-08-19T07:02:19;23.60;87.40
1958;DHT22;979;51.076;13.748;2022-08-19T07:04:48;23.60;87.60
1958;DHT22;979;51.076;13.748;2022-08-19T07:07:19;23.60;88.00
1958;DHT22;979;51.076;13.748;2022-08-19T07:09:49;23.60;88.10
1958;DHT22;979;51.076;13.748;2022-08-19T07:12:27;23.60;88.20
1958;DHT22;979;51.076;13.748;2022-08-19T07:15:03;23.60;88.40
1958;DHT22;979;51.076;13.748;2022-08-19T07:17:32;23.70;88.50
1958;DHT22;979;51.076;13.748;2022-08-19T07:20:01;23.60;88.50
1958;DHT22;979;51.076;13.748;2022-08-19T07:22:35;23.60;88.60
1958;DHT22;979;51.076;13.748;2022-08-19T07:25:06;23.60;88.80
1958;DHT22;979;51.076;13.748;2022-08-19T07:27:37;23.60;89.00
1958;DHT22;979;51.076;13.748;2022-08-19T07:30:08;23.60;89.30
1958;DHT22;979;51.076;13.748;2022-08-19T07:32:39;23.60;89.40
1958;DHT22;979;51.076;13.748;2022-08-19T07:35:07;23.60;89.50
1958;DHT22;979;51.076;13.748;2022-08-19T07:37:36;23.60;89.70
1958;DHT22;979;51.076;13.748;2022-08-19T07:40:07;23.50;89.80
1958;DHT22;979;51.076;13.748;2022-08-19T07:42:35;23.50;90.00
1958;DHT22;979;51.076;13.748;2022-08-19T07:45:04;23.50;90.10
1958;DHT22;979;51.076;13.748;2022-08-19T07:47:34;23.40;90.20
1958;DHT22;979;51.076;13.748;2022-08-19T07:50:18;23.40;90.40
1958;DHT22;979;51.076;13.748;2022-08-19T07:52:50;23.40;90.50
1958;DHT22;979;51.076;13.748;2022-08-19T07:55:21;23.40;90.60
1958;DHT22;979;51.076;13.748;2022-08-19T07:58:09;23.40;90.60
1958;DHT22;979;51.076;13.748;2022-08-19T08:00:41;23.30;90.80
1958;DHT22;979;51.076;13.748;2022-08-19T08:03:11;23.30;91.00
1958;DHT22;979;51.076;13.748;2022-08-19T08:05:40;23.30;91.10
1958;DHT22;979;51.076;13.748;2022-08-19T08:08:28;23.30;91.20
1958;DHT22;979;51.076;13.748;2022-08-19T08:11:15;23.20;91.20
1958;DHT22;979;51.076;13.748;2022-08-19T08:13:47;23.20;91.50
1958;DHT22;979;51.076;13.748;2022-08-19T08:16:27;23.20;91.60
1958;DHT22;979;51.076;13.748;2022-08-19T08:18:59;23.20;91.70
1958;DHT22;979;51.076;13.748;2022-08-19T08:21:30;23.10;91.80
1958;DHT22;979;51.076;13.748;2022-08-19T08:24:00;23.10;92.00
1958;DHT22;979;51.076;13.748;2022-08-19T08:26:29;23.10;92.30
1958;DHT22;979;51.076;13.748;2022-08-19T08:29:00;23.10;92.50
1958;DHT22;979;51.076;13.748;2022-08-19T08:31:39;23.10;92.70
1958;DHT22;979;51.076;13.748;2022-08-19T08:34:10;23.10;93.20
1958;DHT22;979;51.076;13.748;2022-08-19T08:36:44;23.20;93.20
1958;DHT22;979;51.076;13.748;2022-08-19T08:39:15;23.30;93.30
1958;DHT22;979;51.076;13.748;2022-08-19T08:41:49;23.40;93.30
1958;DHT22;979;51.076;13.748;2022-08-19T08:44:27;23.50;93.30
1958;DHT22;979;51.076;13.748;2022-08-19T08:47:03;23.50;93.20
1958;DHT22;979;51.076;13.748;2022-08-19T08:49:41;23.60;93.10
1958;DHT22;979;51.076;13.748;2022-08-19T08:52:17;23.70;93.00
1958;DHT22;979;51.076;13.748;2022-08-19T08:54:48;23.70;92.90
1958;DHT22;979;51.076;13.748;2022-08-19T08:57:26;23.80;92.80
1958;DHT22;979;51.076;13.748;2022-08-19T09:00:09;23.90;92.60
1958;DHT22;979;51.076;13.748;2022-08-19T09:02:41;23.90;92.40
1958;DHT22;979;51.076;13.748;2022-08-19T09:05:18;23.90;92.60
1958;DHT22;979;51.076;13.748;2022-08-19T09:07:57;24.10;92.30
1958;DHT22;979;51.076;13.748;2022-08-19T09:10:31;24.20;92.30
1958;DHT22;979;51.076;13.748;2022-08-19T09:13:16;24.30;92.00
1958;DHT22;979;51.076;13.748;2022-08-19T09:15:52;24.30;91.70
1958;DHT22;979;51.076;13.748;2022-08-19T09:18:22;24.40;91.50
1958;DHT22;979;51.076;13.748;2022-08-19T09:20:57;24.60;91.40
1958;DHT22;979;51.076;13.748;2022-08-19T09:23:33;24.60;91.20
1958;DHT22;979;51.076;13.748;2022-08-19T09:26:07;24.70;91.00
1958;DHT22;979;51.076;13.748;2022-08-19T09:28:36;24.70;90.80
1958;DHT22;979;51.076;13.748;2022-08-19T09:31:10;24.90;90.70
1958;DHT22;979;51.076;13.748;2022-08-19T09:33:38;24.90;90.50
1958;DHT22;979;51.076;13.748;2022-08-19T09:36:15;25.10;90.30
1958;DHT22;979;51.076;13.748;2022-08-19T09:39:02;25.10;90.10
1958;DHT22;979;51.076;13.748;2022-08-19T09:41:44;25.10;89.90
1958;DHT22;979;51.076;13.748;2022-08-19T09:44:15;25.10;89.50
1958;DHT22;979;51.076;13.748;2022-08-19T09:46:53;25.10;89.30
1958;DHT22;979;51.076;13.748;2022-08-19T09:49:22;25.10;89.60
1958;DHT22;979;51.076;13.748;2022-08-19T09:51:53;25.20;89.30
1958;DHT22;979;51.076;13.748;2022-08-19T09:54:23;25.30;89.30
1958;DHT22;979;51.076;13.748;2022-08-19T09:56:58;25.30;89.00
1958;DHT22;979;51.076;13.748;2022-08-19T09:59:35;25.30;88.40
1958;DHT22;979;51.076;13.748;2022-08-19T10:02:04;25.40;88.20
1958;DHT22;979;51.076;13.748;2022-08-19T10:04:39;25.40;87.80
1958;DHT22;979;51.076;13.748;2022-08-19T10:07:30;25.40;87.50
1958;DHT22;979;51.076;13.748;2022-08-19T10:10:04;25.30;87.40
1958;DHT22;979;51.076;13.748;2022-08-19T10:12:33;25.30;87.20
1958;DHT22;979;51.076;13.748;2022-08-19T10:15:03;25.30;87.10
1958;DHT22;979;51.076;13.748;2022-08-19T10:17:33;25.30;87.30
1958;DHT22;979;51.076;13.748;2022-08-19T10:20:03;25.30;86.90
1958;DHT22;979;51.076;13.748;2022-08-19T10:22:35;25.30;86.70
1958;DHT22;979;51.076;13.748;2022-08-19T10:25:06;25.40;86.50
1958;DHT22;979;51.076;13.748;2022-08-19T10:27:34;25.60;86.20
1958;DHT22;979;51.076;13.748;2022-08-19T10:30:07;25.70;86.00
1958;DHT22;979;51.076;13.748;2022-08-19T10:32:39;25.70;85.20
1958;DHT22;979;51.076;13.748;2022-08-19T10:35:13;25.80;85.10
1958;DHT22;979;51.076;13.748;2022-08-19T10:37:49;25.80;84.60
1958;DHT22;979;51.076;13.748;2022-08-19T10:40:30;25.80;84.90
1958;DHT22;979;51.076;13.748;2022-08-19T10:43:26;26.00;84.80
1958;DHT22;979;51.076;13.748;2022-08-19T10:45:58;26.30;84.40
1958;DHT22;979;51.076;13.748;2022-08-19T10:48:29;26.50;84.40
1958;DHT22;979;51.076;13.748;2022-08-19T10:51:21;26.70;84.00
1958;DHT22;979;51.076;13.748;2022-08-19T10:54:17;26.80;82.30
1958;DHT22;979;51.076;13.748;2022-08-19T10:57:04;27.40;82.30
1958;DHT22;979;51.076;13.748;2022-08-19T10:59:32;27.60;81.40
1958;DHT22;979;51.076;13.748;2022-08-19T11:02:08;27.80;81.10
1958;DHT22;979;51.076;13.748;2022-08-19T11:04:44;28.00;80.00
1958;DHT22;979;51.076;13.748;2022-08-19T11:07:16;28.10;79.40
1958;DHT22;979;51.076;13.748;2022-08-19T11:09:48;28.10;78.70
1958;DHT22;979;51.076;13.748;2022-08-19T11:13:02;28.00;78.50
1958;DHT22;979;51.076;13.748;2022-08-19T11:15:41;27.70;77.50
1958;DHT22;979;51.076;13.748;2022-08-19T11:18:23;27.60;78.20
1958;DHT22;979;51.076;13.748;2022-08-19T11:20:55;27.50;78.50
1958;DHT22;979;51.076;13.748;2022-08-19T11:23:32;27.40;78.20
1958;DHT22;979;51.076;13.748;2022-08-19T11:26:02;27.30;78.50
1958;DHT22;979;51.076;13.748;2022-08-19T11:28:32;27.20;78.60
1958;DHT22;979;51.076;13.748;2022-08-19T11:31:09;27.10;78.60
1958;DHT22;979;51.076;13.748;2022-08-19T11:33:41;27.00;78.60
1958;DHT22;979;51.076;13.748;2022-08-19T11:36:14;27.00;78.80
1958;DHT22;979;51.076;13.748;2022-08-19T11:38:47;27.00;79.20
1958;DHT22;979;51.076;13.748;2022-08-19T11:41:40;27.00;79.20
1958;DHT22;979;51.076;13.748;2022-08-19T11:44:08;27.20;78.90
1958;DHT22;979;51.076;13.748;2022-08-19T11:46:41;26.90;78.80
1958;DHT22;979;51.076;13.748;2022-08-19T11:49:16;26.50;78.60
1958;DHT22;979;51.076;13.748;2022-08-19T11:51:46;27.00;78.80
1958;DHT22;979;51.076;13.748;2022-08-19T11:54:23;26.90;78.60
1958;DHT22;979;51.076;13.748;2022-08-19T11:57:14;26.90;79.20
1958;DHT22;979;51.076;13.748;2022-08-19T12:00:09;27.00;79.10
1958;DHT22;979;51.076;13.748;2022-08-19T12:03:08;27.10;78.20
1958;DHT22;979;51.076;13.748;2022-08-19T12:05:47;27.00;78.40
1958;DHT22;979;51.076;13.748;2022-08-19T12:08:17;26.80;78.10
1958;DHT22;979;51.076;13.748;2022-08-19T12:10:48;26.70;78.50
1958;DHT22;979;51.076;13.748;2022-08-19T12:13:25;26.60;78.60
1958;DHT22;979;51.076;13.748;2022-08-19T12:16:18;26.40;79.30
1958;DHT22;979;51.076;13.748;2022-08-19T12:19:06;26.40;79.60
1958;DHT22;979;51.076;13.748;2022-08-19T12:21:35;26.20;79.50
1958;DHT22;979;51.076;13.748;2022-08-19T12:24:06;26.20;79.60
1958;DHT22;979;51.076;13.748;2022-08-19T12:26:37;26.10;79.70
1958;DHT22;979;51.076;13.748;2022-08-19T12:29:21;26.10;79.80
1958;DHT22;979;51.076;13.748;2022-08-19T12:31:56;26.10;79.90
1958;DHT22;979;51.076;13.748;2022-08-19T12:34:31;26.20;79.90
1958;DHT22;979;51.076;13.748;2022-08-19T12:37:03;26.10;79.70
1958;DHT22;979;51.076;13.748;2022-08-19T12:39:35;26.10;79.80
1958;DHT22;979;51.076;13.748;2022-08-19T12:42:04;26.00;79.80
1958;DHT22;979;51.076;13.748;2022-08-19T12:44:36;26.00;79.70
1958;DHT22;979;51.076;13.748;2022-08-19T12:47:10;25.90;79.80
1958;DHT22;979;51.076;13.748;2022-08-19T12:49:39;25.90;79.80
1958;DHT22;979;51.076;13.748;2022-08-19T12:52:22;25.90;79.90
1958;DHT22;979;51.076;13.748;2022-08-19T12:54:51;25.90;79.70
1958;DHT22;979;51.076;13.748;2022-08-19T12:57:21;26.00;79.60
1958;DHT22;979;51.076;13.748;2022-08-19T13:00:02;25.90;79.50
1958;DHT22;979;51.076;13.748;2022-08-19T13:02:32;25.90;79.60
1958;DHT22;979;51.076;13.748;2022-08-19T13:05:07;26.00;79.60
1958;DHT22;979;51.076;13.748;2022-08-19T13:07:40;26.10;80.30
1958;DHT22;979;51.076;13.748;2022-08-19T13:10:11;26.10;79.40
1958;DHT22;979;51.076;13.748;2022-08-19T13:12:41;26.10;79.30
1958;DHT22;979;51.076;13.748;2022-08-19T13:15:12;26.10;79.10
1958;DHT22;979;51.076;13.748;2022-08-19T13:17:51;26.10;79.30
1958;DHT22;979;51.076;13.748;2022-08-19T13:30:23;25.70;79.40
1958;DHT22;979;51.076;13.748;2022-08-19T13:33:09;25.70;80.50
1958;DHT22;979;51.076;13.748;2022-08-19T13:35:46;25.50;80.30
1958;DHT22;979;51.076;13.748;2022-08-19T13:38:18;25.50;80.30
1958;DHT22;979;51.076;13.748;2022-08-19T13:41:07;25.40;80.50
1958;DHT22;979;51.076;13.748;2022-08-19T13:43:40;25.30;80.70
1958;DHT22;979;51.076;13.748;2022-08-19T13:46:11;25.40;80.70
1958;DHT22;979;51.076;13.748;2022-08-19T13:48:43;25.40;80.60
1958;DHT22;979;51.076;13.748;2022-08-19T13:51:17;25.40;80.80
1958;DHT22;979;51.076;13.748;2022-08-19T13:53:45;25.40;80.60
1958;DHT22;979;51.076;13.748;2022-08-19T13:56:16;25.50;80.80
1958;DHT22;979;51.076;13.748;2022-08-19T13:58:52;25.40;80.40
1958;DHT22;979;51.076;13.748;2022-08-19T14:01:32;25.40;80.70
1958;DHT22;979;51.076;13.748;2022-08-19T14:04:03;25.30;80.90
1958;DHT22;979;51.076;13.748;2022-08-19T14:06:35;25.30;80.70
1958;DHT22;979;51.076;13.748;2022-08-19T14:09:06;25.00;80.70
1958;DHT22;979;51.076;13.748;2022-08-19T14:11:43;25.20;81.00
1958;DHT22;979;51.076;13.748;2022-08-19T14:14:15;25.20;80.90
1958;DHT22;979;51.076;13.748;2022-08-19T14:16:45;25.00;81.40
1958;DHT22;979;51.076;13.748;2022-08-19T14:19:13;25.30;81.10
1958;DHT22;979;51.076;13.748;2022-08-19T14:21:50;25.20;81.20
1958;DHT22;979;51.076;13.748;2022-08-19T14:24:21;25.20;81.30
1958;DHT22;979;51.076;13.748;2022-08-19T14:26:49;25.30;81.70
1958;DHT22;979;51.076;13.748;2022-08-19T14:29:20;25.10;81.50
1958;DHT22;979;51.076;13.748;2022-08-19T14:31:51;25.20;81.70
1958;DHT22;979;51.076;13.748;2022-08-19T14:34:25;25.10;81.80
1958;DHT22;979;51.076;13.748;2022-08-19T14:36:54;25.40;81.90
1958;DHT22;979;51.076;13.748;2022-08-19T14:39:23;25.20;81.90
1958;DHT22;979;51.076;13.748;2022-08-19T14:41:58;25.10;82.10
1958;DHT22;979;51.076;13.748;2022-08-19T14:44:27;25.10;82.50
1958;DHT22;979;51.076;13.748;2022-08-19T14:47:01;25.10;82.00
1958;DHT22;979;51.076;13.748;2022-08-19T14:49:35;25.10;81.80
1958;DHT22;979;51.076;13.748;2022-08-19T14:52:15;25.10;81.60
1958;DHT22;979;51.076;13.748;2022-08-19T14:54:44;25.10;82.10
1958;DHT22;979;51.076;13.748;2022-08-19T14:57:15;25.00;81.70
1958;DHT22;979;51.076;13.748;2022-08-19T14:59:48;25.00;82.50
1958;DHT22;979;51.076;13.748;2022-08-19T15:02:23;24.90;82.10
1958;DHT22;979;51.076;13.748;2022-08-19T15:05:01;24.90;82.00
1958;DHT22;979;51.076;13.748;2022-08-19T15:07:32;24.90;82.40
1958;DHT22;979;51.076;13.748;2022-08-19T15:10:08;24.90;82.60
1958;DHT22;979;51.076;13.748;2022-08-19T15:12:44;24.90;82.00
1958;DHT22;979;51.076;13.748;2022-08-19T15:15:17;24.80;81.80
1958;DHT22;979;51.076;13.748;2022-08-19T15:17:50;24.70;82.20
1958;DHT22;979;51.076;13.748;2022-08-19T15:20:23;24.70;82.50
1958;DHT22;979;51.076;13.748;2022-08-19T15:23:02;24.70;82.40
1958;DHT22;979;51.076;13.748;2022-08-19T15:25:30;24.70;83.00
1958;DHT22;979;51.076;13.748;2022-08-19T15:28:33;24.70;82.60
1958;DHT22;979;51.076;13.748;2022-08-19T15:31:05;24.70;82.60
1958;DHT22;979;51.076;13.748;2022-08-19T15:34:31;24.70;82.70
1958;DHT22;979;51.076;13.748;2022-08-19T15:37:21;24.70;82.30
1958;DHT22;979;51.076;13.748;2022-08-19T15:40:17;24.80;82.70
1958;DHT22;979;51.076;13.748;2022-08-19T15:42:55;24.60;82.40
1958;DHT22;979;51.076;13.748;2022-08-19T15:45:28;24.70;82.40
1958;DHT22;979;51.076;13.748;2022-08-19T15:51:26;24.70;82.50
1958;DHT22;979;51.076;13.748;2022-08-19T15:54:18;24.80;82.80
1958;DHT22;979;51.076;13.748;2022-08-19T15:56:48;24.80;82.60
1958;DHT22;979;51.076;13.748;2022-08-19T15:59:37;24.80;82.50
1958;DHT22;979;51.076;13.748;2022-08-19T16:02:30;24.90;82.40
1958;DHT22;979;51.076;13.748;2022-08-19T16:05:30;25.00;82.60
1958;DHT22;979;51.076;13.748;2022-08-19T16:08:41;25.00;82.00
1958;DHT22;979;51.076;13.748;2022-08-19T16:11:21;25.10;81.70
1958;DHT22;979;51.076;13.748;2022-08-19T16:13:56;25.10;81.80
1958;DHT22;979;51.076;13.748;2022-08-19T16:16:35;25.10;81.70
1958;DHT22;979;51.076;13.748;2022-08-19T16:19:14;25.20;82.10
1958;DHT22;979;51.076;13.748;2022-08-19T16:21:50;25.00;81.80
1958;DHT22;979;51.076;13.748;2022-08-19T16:24:24;25.20;82.00
1958;DHT22;979;51.076;13.748;2022-08-19T16:26:56;25.00;81.90
1958;DHT22;979;51.076;13.748;2022-08-19T16:29:25;24.90;81.60
1958;DHT22;979;51.076;13.748;2022-08-19T16:32:10;25.10;82.20
1958;DHT22;979;51.076;13.748;2022-08-19T16:34:40;24.90;81.50
1958;DHT22;979;51.076;13.748;2022-08-19T16:40:46;24.90;81.60
1958;DHT22;979;51.076;13.748;2022-08-19T16:43:20;24.90;81.50
1958;DHT22;979;51.076;13.748;2022-08-19T16:45:52;24.80;81.70
1958;DHT22;979;51.076;13.748;2022-08-19T16:48:26;24.80;81.80
1958;DHT22;979;51.076;13.748;2022-08-19T16:51:00;24.70;81.90
1958;DHT22;979;51.076;13.748;2022-08-19T16:53:37;24.60;81.50
1958;DHT22;979;51.076;13.748;2022-08-19T16:56:11;24.60;81.90
1958;DHT22;979;51.076;13.748;2022-08-19T16:58:40;24.70;82.10
1958;DHT22;979;51.076;13.748;2022-08-19T17:01:09;24.70;82.00
1958;DHT22;979;51.076;13.748;2022-08-19T17:03:38;24.70;81.80